createdAt,value
2023-04-11T00:02:59.424Z,101007.02
2023-04-11T00:06:14.346Z,101002.41
2023-04-11T00:10:17.141Z,100999.99
2023-04-11T00:13:56.828Z,100993.95
2023-04-11T00:17:31.705Z,100987.91
2023-04-11T00:20:52.006Z,100984.95
2023-04-11T00:24:46.626Z,100982.20
2023-04-11T00:28:14.272Z,100977.37
2023-04-11T00:32:07.493Z,100972.61
2023-04-11T00:35:54.625Z,100973.17
2023-04-11T00:39:33.653Z,100972.16
2023-04-11T00:42:52.027Z,100966.13
2023-04-11T00:46:36.040Z,100960.26
2023-04-11T00:50:22.381Z,100957.48
2023-04-11T00:54:13.123Z,100952.27
2023-04-11T00:57:53.192Z,100950.34
2023-04-11T01:01:29.686Z,100945.03
2023-04-11T01:05:08.905Z,100938.90
2023-04-11T01:08:46.937Z,100937.80
2023-04-11T01:12:32.860Z,100938.16
2023-04-11T01:16:01.455Z,100938.77
2023-04-11T01:19:21.966Z,100936.38
2023-04-11T01:23:24.994Z,100930.34
2023-04-11T01:27:03.052Z,100928.34
2023-04-11T01:30:39.697Z,100924.39
2023-04-11T01:33:59.743Z,100923.92
2023-04-11T01:37:54.595Z,100921.52
2023-04-11T01:41:35.242Z,100923.27
2023-04-11T01:44:53.330Z,100916.42
2023-04-11T01:48:39.053Z,100908.55
2023-04-11T01:52:42.610Z,100906.63
2023-04-11T01:56:12.648Z,100904.54
2023-04-11T01:59:30.262Z,100900.88
2023-04-11T02:03:17.776Z,100897.06
2023-04-11T02:07:11.493Z,100889.73
2023-04-11T02:10:29.476Z,100885.29
2023-04-11T02:14:40.015Z,100887.16
2023-04-11T02:17:54.152Z,100886.71
2023-04-11T02:21:38.991Z,100884.94
2023-04-11T02:25:38.380Z,100881.48
2023-04-11T02:29:01.296Z,100881.41
2023-04-11T02:33:03.509Z,100882.64
2023-04-11T02:36:41.157Z,100880.20
2023-04-11T02:40:02.453Z,100880.14
2023-04-11T02:43:36.861Z,100871.04
2023-04-11T02:47:38.743Z,100866.55
2023-04-11T02:50:59.098Z,100867.59
2023-04-11T02:55:00.902Z,100863.05
2023-04-11T02:58:41.021Z,100860.67
2023-04-11T03:02:01.287Z,100860.15
2023-04-11T03:06:01.312Z,100860.34
2023-04-11T03:09:41.269Z,100858.82
2023-04-11T03:13:18.793Z,100856.90
2023-04-11T03:16:56.572Z,100852.54
2023-04-11T03:20:35.304Z,100850.66
2023-04-11T03:23:53.264Z,100845.39
2023-04-11T03:27:36.989Z,100842.73
2023-04-11T03:31:22.200Z,100843.17
2023-04-11T03:35:01.432Z,100838.23
2023-04-11T03:38:46.209Z,100840.42
2023-04-11T03:42:46.559Z,100833.27
2023-04-11T03:46:25.591Z,100834.05
2023-04-11T03:50:01.080Z,100833.42
2023-04-11T03:53:21.942Z,100834.74
2023-04-11T03:57:34.868Z,100835.27
2023-04-11T04:00:47.444Z,100833.02
2023-04-11T04:04:23.625Z,100827.80
2023-04-11T04:08:14.062Z,100826.41
2023-04-11T04:12:18.227Z,100824.52
2023-04-11T04:15:39.344Z,100822.77
2023-04-11T04:19:24.728Z,100820.52
2023-04-11T04:23:05.781Z,100823.24
2023-04-11T04:26:57.236Z,100824.27
2023-04-11T04:30:33.407Z,100830.13
2023-04-11T04:34:09.667Z,100830.08
2023-04-11T04:38:05.610Z,100832.02
2023-04-11T04:41:15.716Z,100839.34
2023-04-11T04:45:05.471Z,100829.77
2023-04-11T04:48:43.085Z,100830.20
2023-04-11T04:52:21.267Z,100824.84
2023-04-11T04:55:58.462Z,100818.25
2023-04-11T04:59:39.711Z,100815.42
2023-04-11T05:03:08.987Z,100812.30
2023-04-11T05:06:51.630Z,100814.17
2023-04-11T05:10:14.438Z,100811.43
2023-04-11T05:14:17.010Z,100804.23
2023-04-11T05:17:54.790Z,100809.60
2023-04-11T05:21:22.583Z,100806.40
2023-04-11T05:24:43.284Z,100804.52
2023-04-11T05:28:24.447Z,100801.08
2023-04-11T05:32:15.513Z,100797.16
2023-04-11T05:35:53.352Z,100793.26
2023-04-11T05:39:28.885Z,100783.79
2023-04-11T05:42:51.923Z,100776.08
2023-04-11T05:46:53.294Z,100770.00
2023-04-11T05:50:13.032Z,100765.42
2023-04-11T05:54:07.708Z,100756.60
2023-04-11T05:57:35.680Z,100749.90
2023-04-11T06:01:29.590Z,100739.30
2023-04-11T06:05:11.220Z,100731.02
2023-04-11T06:08:28.515Z,100726.69
2023-04-11T06:12:16.321Z,100722.84
2023-04-11T06:16:00.715Z,100723.34
2023-04-11T06:19:19.552Z,100721.24
2023-04-11T06:23:02.104Z,100719.19
2023-04-11T06:26:46.704Z,100720.79
2023-04-11T06:30:44.783Z,100716.84
2023-04-11T06:34:02.696Z,100713.05
2023-04-11T06:37:55.749Z,100704.08
2023-04-11T06:41:18.422Z,100701.78
2023-04-11T06:44:59.067Z,100697.75
2023-04-11T06:48:32.987Z,100688.16
2023-04-11T06:52:18.508Z,100688.02
2023-04-11T06:55:50.956Z,100679.59
2023-04-11T06:59:52.283Z,100667.89
2023-04-11T07:03:14.190Z,100668.84
2023-04-11T07:06:54.490Z,100663.44
2023-04-11T07:10:32.167Z,100658.61
2023-04-11T07:14:23.097Z,100653.41
2023-04-11T07:18:02.036Z,100648.07
2023-04-11T07:21:30.358Z,100645.98
2023-04-11T07:24:59.903Z,100638.06
2023-04-11T07:29:01.284Z,100626.73
2023-04-11T07:32:22.223Z,100624.75
2023-04-11T07:36:04.136Z,100620.95
2023-04-11T07:39:54.631Z,100613.61
2023-04-11T07:43:32.257Z,100612.07
2023-04-11T07:47:10.779Z,100605.10
2023-04-11T07:50:47.583Z,100604.02
2023-04-11T07:54:25.275Z,100597.58
2023-04-11T07:58:03.494Z,100591.77
2023-04-11T08:01:45.788Z,100587.30
2023-04-11T08:05:02.728Z,100586.37
2023-04-11T08:08:50.121Z,100581.91
2023-04-11T08:12:15.058Z,100582.21
2023-04-11T08:16:26.545Z,100579.04
2023-04-11T08:19:38.055Z,100575.09
2023-04-11T08:23:15.327Z,100569.38
2023-04-11T08:26:52.897Z,100574.70
2023-04-11T08:30:57.646Z,100570.05
2023-04-11T08:34:08.280Z,100566.77
2023-04-11T08:38:09.979Z,100566.04
2023-04-11T08:41:47.881Z,100561.64
2023-04-11T08:45:35.343Z,100549.04
2023-04-11T08:49:12.930Z,100547.54
2023-04-11T08:52:41.301Z,100543.29
2023-04-11T08:56:18.510Z,100537.48
2023-04-11T08:59:39.297Z,100526.97
2023-04-11T09:03:50.748Z,100526.59
2023-04-11T09:07:01.899Z,100516.02
2023-04-11T09:10:47.453Z,100520.80
2023-04-11T09:14:27.621Z,100518.52
2023-04-11T09:17:46.307Z,100508.19
2023-04-11T09:21:51.174Z,100504.75
2023-04-11T09:25:10.804Z,100498.06
2023-04-11T09:28:54.116Z,100494.95
2023-04-11T09:32:40.972Z,100486.54
2023-04-11T09:36:00.284Z,100488.55
2023-04-11T09:39:43.790Z,100479.55
2023-04-11T09:43:28.468Z,100472.05
2023-04-11T09:47:06.379Z,100464.53
2023-04-11T09:50:59.179Z,100445.75
2023-04-11T09:54:25.208Z,100438.24
2023-04-11T09:58:02.916Z,100424.73
2023-04-11T10:01:37.038Z,100419.73
2023-04-11T10:05:40.036Z,100412.85
2023-04-11T10:09:20.639Z,100404.35
2023-04-11T10:12:37.552Z,100398.14
2023-04-11T10:16:14.874Z,100396.92
2023-04-11T10:20:45.025Z,100387.18
2023-04-11T10:24:14.145Z,100389.27
2023-04-11T10:28:04.659Z,100383.31
2023-04-11T10:32:12.589Z,100384.06
2023-04-11T10:35:34.168Z,100377.25
2023-04-11T10:38:53.711Z,100367.92
2023-04-11T10:43:22.084Z,100363.52
2023-04-11T10:46:23.715Z,100362.60
2023-04-11T10:49:52.218Z,100364.59
2023-04-11T10:53:58.507Z,100354.95
2023-04-11T10:58:03.545Z,100351.42
2023-04-11T11:01:31.364Z,100346.47
2023-04-11T11:05:40.030Z,100344.09
2023-04-11T11:09:22.474Z,100339.86
2023-04-11T11:12:55.418Z,100340.79
2023-04-11T11:16:32.398Z,100340.08
2023-04-11T11:20:19.462Z,100337.05
2023-04-11T11:23:38.840Z,100340.68
2023-04-11T11:27:08.379Z,100332.02
2023-04-11T11:30:54.878Z,100323.42
2023-04-11T11:34:40.196Z,100316.98
2023-04-11T11:38:33.476Z,100315.67
2023-04-11T11:42:12.593Z,100309.09
2023-04-11T11:45:40.046Z,100317.16
2023-04-11T11:49:45.819Z,100311.81
2023-04-11T11:53:15.060Z,100302.17
2023-04-11T11:56:41.196Z,100295.64
2023-04-11T12:00:24.620Z,100289.52
2023-04-11T12:04:13.256Z,100288.31
2023-04-11T12:08:14.977Z,100287.96
2023-04-11T12:11:55.635Z,100286.30
2023-04-11T12:15:30.475Z,100289.52
2023-04-11T12:19:06.219Z,100289.88
2023-04-11T12:22:27.793Z,100282.41
2023-04-11T12:26:24.127Z,100282.08
2023-04-11T12:29:51.175Z,100282.08
2023-04-11T12:33:45.645Z,100273.71
2023-04-11T12:37:32.769Z,100266.73
2023-04-11T12:40:44.816Z,100266.14
2023-04-11T12:44:20.714Z,100265.64
2023-04-11T12:48:05.257Z,100264.05
2023-04-11T12:52:14.606Z,100259.17
2023-04-11T12:55:27.499Z,100253.52
2023-04-11T12:59:32.910Z,100246.91
2023-04-11T13:03:00.067Z,100240.53
2023-04-11T13:06:34.910Z,100236.04
2023-04-11T13:10:11.619Z,100227.46
2023-04-11T13:13:59.842Z,100224.42
2023-04-11T13:17:37.707Z,100220.89
2023-04-11T13:21:15.329Z,100220.44
2023-04-11T13:24:43.411Z,100213.55
2023-04-11T13:28:31.246Z,100208.08
2023-04-11T13:31:51.825Z,100204.85
2023-04-11T13:35:33.533Z,100200.52
2023-04-11T13:39:07.610Z,100200.27
2023-04-11T13:42:54.556Z,100192.90
2023-04-11T13:46:47.743Z,100182.55
2023-04-11T13:50:10.681Z,100178.68
2023-04-11T13:53:43.197Z,100173.40
2023-04-11T13:57:31.378Z,100172.84
2023-04-11T14:01:15.526Z,100164.54
2023-04-11T14:05:01.091Z,100168.48
2023-04-11T14:08:36.545Z,100160.88
2023-04-11T14:11:58.550Z,100152.69
2023-04-11T14:15:43.624Z,100151.64
2023-04-11T14:19:53.018Z,100145.40
2023-04-11T14:23:06.603Z,100142.33
2023-04-11T14:27:05.982Z,100138.98
2023-04-11T14:30:28.886Z,100138.45
2023-04-11T14:34:13.501Z,100136.39
2023-04-11T14:38:14.318Z,100134.77
2023-04-11T14:41:33.910Z,100131.30
2023-04-11T14:45:32.366Z,100128.98
2023-04-11T14:48:56.174Z,100119.99
2023-04-11T14:52:35.137Z,100120.71
2023-04-11T14:56:30.286Z,100116.35
2023-04-11T14:59:48.616Z,100111.83
2023-04-11T15:03:54.146Z,100113.74
2023-04-11T15:07:28.629Z,100109.42
2023-04-11T15:11:06.164Z,100103.66
2023-04-11T15:14:35.376Z,100098.59
2023-04-11T15:18:22.872Z,100097.53
2023-04-11T15:21:51.723Z,100092.95
2023-04-11T15:25:29.377Z,100097.06
2023-04-11T15:29:21.288Z,100097.59
2023-04-11T15:32:55.559Z,100090.83
2023-04-11T15:36:30.955Z,100084.41
2023-04-11T15:39:54.346Z,100075.42
2023-04-11T15:43:44.587Z,100071.92
2023-04-11T15:47:22.538Z,100073.36
2023-04-11T15:50:44.104Z,100069.37
2023-04-11T15:54:47.807Z,100067.86
2023-04-11T15:57:57.802Z,100064.34
2023-04-11T16:01:42.530Z,100063.38
2023-04-11T16:05:42.406Z,100059.17
2023-04-11T16:09:01.957Z,100060.07
2023-04-11T16:12:52.393Z,100055.34
2023-04-11T16:16:18.439Z,100052.02
2023-04-11T16:20:11.909Z,100056.97
2023-04-11T16:23:45.668Z,100054.42
2023-04-11T16:27:33.324Z,100055.23
2023-04-11T16:30:58.913Z,100048.51
2023-04-11T16:34:41.912Z,100048.45
2023-04-11T16:38:09.657Z,100048.20
2023-04-11T16:42:04.416Z,100044.34
2023-04-11T16:45:20.437Z,100040.04
2023-04-11T16:48:51.008Z,100037.45
2023-04-11T16:52:39.639Z,100035.44
2023-04-11T16:56:40.250Z,100036.93
2023-04-11T17:00:12.985Z,100032.87
2023-04-11T17:03:33.374Z,100033.33
2023-04-11T17:07:07.858Z,100035.80
2023-04-11T17:10:44.206Z,100034.80
2023-04-11T17:14:45.049Z,100037.09
2023-04-11T17:18:20.325Z,100035.09
2023-04-11T17:21:35.709Z,100033.38
2023-04-11T17:25:21.431Z,100030.27
2023-04-11T17:29:01.960Z,100031.37
2023-04-11T17:32:51.412Z,100037.21
2023-04-11T17:36:14.088Z,100038.00
2023-04-11T17:39:53.157Z,100039.97
2023-04-11T17:43:43.707Z,100042.30
2023-04-11T17:47:07.050Z,100046.50
2023-04-11T17:50:46.480Z,100048.06
2023-04-11T17:54:22.051Z,100047.53
2023-04-11T17:58:16.520Z,100053.34
2023-04-11T18:01:35.277Z,100053.17
2023-04-11T18:05:24.601Z,100049.42
2023-04-11T18:09:15.488Z,100046.73
2023-04-11T18:12:54.456Z,100048.71
2023-04-11T18:16:22.953Z,100048.20
2023-04-11T18:20:08.414Z,100051.30
2023-04-11T18:23:53.289Z,100054.16
2023-04-11T18:27:26.392Z,100053.31
2023-04-11T18:30:53.929Z,100056.05
2023-04-11T18:34:36.355Z,100054.98
2023-04-11T18:37:57.145Z,100053.24
2023-04-11T18:41:56.496Z,100056.63
2023-04-11T18:45:36.493Z,100063.41
2023-04-11T18:48:57.104Z,100065.83
2023-04-11T18:52:58.827Z,100063.92
2023-04-11T18:56:22.784Z,100060.33
2023-04-11T19:00:00.845Z,100059.12
2023-04-11T19:03:57.011Z,100057.33
2023-04-11T19:07:30.895Z,100051.77
2023-04-11T19:11:08.111Z,100048.92
2023-04-11T19:14:38.344Z,100050.17
2023-04-11T19:18:32.508Z,100050.24
2023-04-11T19:21:53.334Z,100046.70
2023-04-11T19:25:39.364Z,100043.66
2023-04-11T19:29:23.648Z,100045.44
2023-04-11T19:32:47.736Z,100046.15
2023-04-11T19:36:33.333Z,100046.86
2023-04-11T19:40:14.080Z,100050.15
2023-04-11T19:43:44.520Z,100049.23
2023-04-11T19:47:25.234Z,100051.13
2023-04-11T19:51:02.957Z,100051.23
2023-04-11T19:54:23.202Z,100053.79
2023-04-11T19:58:07.885Z,100058.21
2023-04-11T20:02:01.041Z,100063.72
2023-04-11T20:05:33.144Z,100063.28
2023-04-11T20:09:17.462Z,100062.82
2023-04-11T20:12:53.468Z,100057.85
2023-04-11T20:16:26.478Z,100060.88
2023-04-11T20:20:12.580Z,100062.42
2023-04-11T20:23:48.315Z,100061.98
2023-04-11T20:27:36.141Z,100058.43
2023-04-11T20:31:05.293Z,100050.91
2023-04-11T20:34:40.648Z,100044.84
2023-04-11T20:38:30.661Z,100039.00
2023-04-11T20:41:56.978Z,100036.19
2023-04-11T20:45:33.261Z,100039.89
2023-04-11T20:49:11.184Z,100043.70
2023-04-11T20:52:33.664Z,100049.73
2023-04-11T20:56:34.356Z,100052.20
2023-04-11T21:00:12.405Z,100050.48
2023-04-11T21:03:44.439Z,100055.82
2023-04-11T21:07:21.284Z,100059.59
2023-04-11T21:10:56.888Z,100058.87
2023-04-11T21:14:46.296Z,100054.20
2023-04-11T21:18:14.044Z,100055.08
2023-04-11T21:21:41.580Z,100050.26
2023-04-11T21:25:36.800Z,100049.01
2023-04-11T21:29:12.247Z,100042.92
2023-04-11T21:32:44.823Z,100041.88
2023-04-11T21:36:23.873Z,100042.91
2023-04-11T21:40:00.335Z,100042.60
2023-04-11T21:43:37.992Z,100040.77
2023-04-11T21:47:00.546Z,100036.93
2023-04-11T21:51:03.811Z,100033.49
2023-04-11T21:54:31.364Z,100034.52
2023-04-11T21:58:18.496Z,100037.85
2023-04-11T22:01:46.995Z,100052.23
2023-04-11T22:05:09.382Z,100050.71
2023-04-11T22:09:01.468Z,100045.36
2023-04-11T22:12:31.944Z,100043.52
2023-04-11T22:16:34.787Z,100043.94
2023-04-11T22:20:15.938Z,100041.20
2023-04-11T22:23:43.250Z,100038.05
2023-04-11T22:27:19.456Z,100037.45
2023-04-11T22:30:40.338Z,100038.08
2023-04-11T22:34:39.558Z,100037.31
2023-04-11T22:38:19.553Z,100032.04
2023-04-11T22:41:57.053Z,100023.35
2023-04-11T22:45:16.000Z,100020.62
2023-04-11T22:49:17.085Z,100019.58
2023-04-11T22:52:41.971Z,100021.05
2023-04-11T22:56:32.767Z,100021.92
2023-04-11T23:00:16.259Z,100018.02
2023-04-11T23:03:49.349Z,100017.00
2023-04-11T23:07:26.185Z,100008.96
2023-04-11T23:11:03.658Z,100009.71
2023-04-11T23:14:41.612Z,100013.41
2023-04-11T23:18:19.276Z,100019.55
2023-04-11T23:21:41.187Z,100026.05
2023-04-11T23:25:35.121Z,100030.81
2023-04-11T23:29:10.747Z,100031.41
2023-04-11T23:32:41.532Z,100025.30
2023-04-11T23:36:26.779Z,100022.70
2023-04-11T23:40:15.215Z,100016.86
2023-04-11T23:43:52.822Z,100014.04
2023-04-11T23:47:20.665Z,100018.73
2023-04-11T23:50:41.134Z,100023.44
2023-04-11T23:54:29.995Z,100023.52
2023-04-11T23:58:21.252Z,100026.16
